createdAt,value
2023-04-08T00:02:18.535Z,6.55
2023-04-08T00:05:21.907Z,6.60
2023-04-08T00:08:26.378Z,6.60
2023-04-08T00:11:29.776Z,5.93
2023-04-08T00:14:32.923Z,6.35
2023-04-08T00:17:36.416Z,6.32
2023-04-08T00:20:39.580Z,6.40
2023-04-08T00:23:44.216Z,6.50
2023-04-08T00:26:47.802Z,6.20
2023-04-08T00:29:50.879Z,6.07
2023-04-08T00:32:54.123Z,6.80
2023-04-08T00:35:57.538Z,6.28
2023-04-08T00:39:02.123Z,7.03
2023-04-08T00:42:05.284Z,7.30
2023-04-08T00:45:10.006Z,7.15
2023-04-08T00:48:13.305Z,5.97
2023-04-08T00:51:16.930Z,6.43
2023-04-08T00:54:21.428Z,5.57
2023-04-08T00:57:24.568Z,6.63
2023-04-08T01:00:29.437Z,5.95
2023-04-08T01:03:40.483Z,6.68
2023-04-08T01:06:50.717Z,6.53
2023-04-08T01:09:57.956Z,6.28
2023-04-08T01:13:08.310Z,5.70
2023-04-08T01:16:15.774Z,7.18
2023-04-08T01:19:33.974Z,6.88
2023-04-08T01:22:46.522Z,6.25
2023-04-08T01:25:53.633Z,6.70
2023-04-08T01:29:01.752Z,5.73
2023-04-08T01:35:10.705Z,6.13
2023-04-08T01:38:18.017Z,6.72
2023-04-08T01:41:22.979Z,6.30
2023-04-08T01:44:28.738Z,6.70
2023-04-08T01:47:32.578Z,6.95
2023-04-08T01:50:36.654Z,7.05
2023-04-08T01:53:39.908Z,6.30
2023-04-08T01:56:47.209Z,6.57
2023-04-08T01:59:53.439Z,6.43
2023-04-08T02:02:58.731Z,6.35
2023-04-08T02:06:02.119Z,8.20
2023-04-08T02:09:05.768Z,7.40
2023-04-08T02:12:11.457Z,7.22
2023-04-08T02:15:15.666Z,7.28
2023-04-08T02:18:26.353Z,5.85
2023-04-08T02:21:38.445Z,6.78
2023-04-08T02:24:42.152Z,7.38
2023-04-08T02:27:48.700Z,5.57
2023-04-08T02:30:53.920Z,6.60
2023-04-08T02:33:58.716Z,6.75
2023-04-08T02:37:04.289Z,6.63
2023-04-08T02:40:24.808Z,6.93
2023-04-08T02:43:32.219Z,6.35
2023-04-08T02:46:35.421Z,7.35
2023-04-08T02:49:39.830Z,6.75
2023-04-08T02:52:44.808Z,7.05
2023-04-08T02:55:48.224Z,6.20
2023-04-08T02:58:52.985Z,7.00
2023-04-08T03:01:57.380Z,7.05
2023-04-08T03:05:00.813Z,6.28
2023-04-08T03:08:04.079Z,7.03
2023-04-08T03:11:07.208Z,7.07
2023-04-08T03:14:11.764Z,7.15
2023-04-08T03:17:14.893Z,6.28
2023-04-08T03:20:18.040Z,6.97
2023-04-08T03:23:21.571Z,6.88
2023-04-08T03:26:24.817Z,7.35
2023-04-08T03:29:29.461Z,6.53
2023-04-08T03:35:02.658Z,7.78
2023-04-08T03:38:05.950Z,7.07
2023-04-08T03:41:09.102Z,6.93
2023-04-08T03:44:12.403Z,8.00
2023-04-08T03:47:15.591Z,7.30
2023-04-08T03:50:20.120Z,8.50
2023-04-08T03:53:23.436Z,7.97
2023-04-08T03:56:26.580Z,8.15
2023-04-08T03:59:29.687Z,6.70
2023-04-08T04:02:32.943Z,6.97
2023-04-08T04:05:37.846Z,7.90
2023-04-08T04:08:40.950Z,7.80
2023-04-08T04:11:44.063Z,7.65
2023-04-08T04:14:47.353Z,7.40
2023-04-08T04:17:51.110Z,8.20
2023-04-08T04:20:55.852Z,7.72
2023-04-08T04:23:58.976Z,8.40
2023-04-08T04:27:02.118Z,7.38
2023-04-08T04:30:06.057Z,8.05
2023-04-08T04:33:10.017Z,7.28
2023-04-08T04:36:14.494Z,8.02
2023-04-08T04:39:17.887Z,8.02
2023-04-08T04:42:21.607Z,8.13
2023-04-08T04:45:24.742Z,8.18
2023-04-08T04:48:27.861Z,8.05
2023-04-08T04:51:33.689Z,7.18
2023-04-08T04:54:36.887Z,8.10
2023-04-08T04:57:40.127Z,8.15
2023-04-08T05:00:43.340Z,7.38
2023-04-08T05:03:46.515Z,7.28
2023-04-08T05:06:51.244Z,8.38
2023-04-08T05:09:55.273Z,7.60
2023-04-08T05:12:58.540Z,8.00
2023-04-08T05:16:02.029Z,7.75
2023-04-08T05:19:05.244Z,7.38
2023-04-08T05:22:10.263Z,6.85
2023-04-08T05:25:13.365Z,7.88
2023-04-08T05:28:16.664Z,7.18
2023-04-08T05:31:21.441Z,7.63
2023-04-08T05:34:24.723Z,7.97
2023-04-08T05:37:29.375Z,7.22
2023-04-08T05:40:34.531Z,7.57
2023-04-08T05:43:37.887Z,6.93
2023-04-08T05:46:41.264Z,5.45
2023-04-08T05:49:44.347Z,7.07
2023-04-08T05:52:48.929Z,6.32
2023-04-08T05:55:52.051Z,7.18
2023-04-08T05:58:55.177Z,6.70
2023-04-08T06:01:58.350Z,7.32
2023-04-08T06:05:01.904Z,6.07
2023-04-08T06:08:07.124Z,8.23
2023-04-08T06:11:10.350Z,7.20
2023-04-08T06:14:13.586Z,5.90
2023-04-08T06:17:16.718Z,6.43
2023-04-08T06:20:20.147Z,5.45
2023-04-08T06:23:24.733Z,5.15
2023-04-08T06:26:28.336Z,3.65
2023-04-08T06:29:31.386Z,5.18
2023-04-08T06:32:34.529Z,5.10
2023-04-08T06:35:38.269Z,4.85
2023-04-08T06:38:42.740Z,5.00
2023-04-08T06:41:45.934Z,5.93
2023-04-08T06:45:10.230Z,4.95
2023-04-08T06:48:13.340Z,4.03
2023-04-08T06:51:16.734Z,4.60
2023-04-08T06:54:21.294Z,7.10
2023-04-08T06:57:24.527Z,5.45
2023-04-08T07:00:27.658Z,4.40
2023-04-08T07:03:30.863Z,4.72
2023-04-08T07:06:34.205Z,3.38
2023-04-08T07:09:38.753Z,4.40
2023-04-08T07:12:41.918Z,4.95
2023-04-08T07:15:44.981Z,4.82
2023-04-08T07:18:48.318Z,3.97
2023-04-08T07:21:52.715Z,4.10
2023-04-08T07:24:57.344Z,5.50
2023-04-08T07:28:00.724Z,4.28
2023-04-08T07:31:11.829Z,3.55
2023-04-08T07:34:15.018Z,4.30
2023-04-08T07:37:18.832Z,4.45
2023-04-08T07:40:23.370Z,4.30
2023-04-08T07:43:26.539Z,4.97
2023-04-08T07:46:29.803Z,5.57
2023-04-08T07:49:32.982Z,4.78
2023-04-08T07:52:36.374Z,5.07
2023-04-08T07:55:42.429Z,4.78
2023-04-08T07:58:45.746Z,7.30
2023-04-08T08:01:48.939Z,4.75
2023-04-08T08:04:52.173Z,5.90
2023-04-08T08:07:55.416Z,5.20
2023-04-08T08:11:00.019Z,6.22
2023-04-08T08:14:04.498Z,6.05
2023-04-08T08:17:07.686Z,4.93
2023-04-08T08:20:11.536Z,5.55
2023-04-08T08:23:14.690Z,5.40
2023-04-08T08:26:19.270Z,7.45
2023-04-08T08:29:22.351Z,6.10
2023-04-08T08:32:25.589Z,6.15
2023-04-08T08:35:28.792Z,7.05
2023-04-08T08:38:32.052Z,6.47
2023-04-08T08:41:37.718Z,7.00
2023-04-08T08:44:41.358Z,5.47
2023-04-08T08:47:44.636Z,6.38
2023-04-08T08:50:48.031Z,6.82
2023-04-08T08:53:51.336Z,6.22
2023-04-08T08:56:56.076Z,6.55
2023-04-08T08:59:59.167Z,5.43
2023-04-08T09:03:19.583Z,7.35
2023-04-08T09:06:23.058Z,5.80
2023-04-08T09:09:27.142Z,5.88
2023-04-08T09:12:31.803Z,7.20
2023-04-08T09:15:35.138Z,6.78
2023-04-08T09:18:39.370Z,4.82
2023-04-08T09:21:43.506Z,5.85
2023-04-08T09:24:46.702Z,5.88
2023-04-08T09:27:51.186Z,5.47
2023-04-08T09:35:03.555Z,6.30
2023-04-08T09:38:07.444Z,5.22
2023-04-08T09:41:14.281Z,5.35
2023-04-08T09:44:20.663Z,6.03
2023-04-08T09:47:29.878Z,5.32
2023-04-08T09:50:41.475Z,5.32
2023-04-08T09:53:49.300Z,6.05
2023-04-08T09:56:59.702Z,5.25
2023-04-08T10:00:09.672Z,7.13
2023-04-08T10:03:29.280Z,8.10
2023-04-08T10:06:35.700Z,5.05
2023-04-08T10:09:41.509Z,5.80
2023-04-08T10:12:45.246Z,6.82
2023-04-08T10:15:49.063Z,5.38
2023-04-08T10:18:55.620Z,5.65
2023-04-08T10:22:00.782Z,6.20
2023-04-08T10:25:33.321Z,6.90
2023-04-08T10:28:36.493Z,5.20
2023-04-08T10:31:41.485Z,5.93
2023-04-08T10:34:54.472Z,6.70
2023-04-08T10:37:59.278Z,5.63
2023-04-08T10:41:02.795Z,6.18
2023-04-08T10:44:06.066Z,6.00
2023-04-08T10:47:09.526Z,7.28
2023-04-08T10:50:17.909Z,6.03
2023-04-08T10:53:27.837Z,6.18
2023-04-08T10:56:31.009Z,4.28
2023-04-08T10:59:34.217Z,6.28
2023-04-08T11:02:39.431Z,5.43
2023-04-08T11:05:43.633Z,7.43
2023-04-08T11:08:48.197Z,5.72
2023-04-08T11:11:53.600Z,7.53
2023-04-08T11:14:57.080Z,6.10
2023-04-08T11:18:02.342Z,5.63
2023-04-08T11:21:09.756Z,5.40
2023-04-08T11:24:14.381Z,6.55
2023-04-08T11:27:17.817Z,5.40
2023-04-08T11:30:21.779Z,5.75
2023-04-08T11:33:26.346Z,5.55
2023-04-08T11:36:30.187Z,4.97
2023-04-08T11:39:34.947Z,3.80
2023-04-08T11:42:38.801Z,5.07
2023-04-08T11:45:43.004Z,5.07
2023-04-08T11:48:59.426Z,5.60
2023-04-08T11:52:02.601Z,5.72
2023-04-08T11:55:07.952Z,6.38
2023-04-08T11:58:11.391Z,5.10
2023-04-08T12:01:14.790Z,5.30
2023-04-08T12:04:18.097Z,5.18
2023-04-08T12:07:21.464Z,4.38
2023-04-08T12:10:26.562Z,4.95
2023-04-08T12:13:31.389Z,4.63
2023-04-08T12:16:34.609Z,4.45
2023-04-08T12:19:38.549Z,4.45
2023-04-08T12:22:41.800Z,4.78
2023-04-08T12:25:46.276Z,4.55
2023-04-08T12:28:49.423Z,4.88
2023-04-08T12:31:53.329Z,3.60
2023-04-08T12:34:56.940Z,4.43
2023-04-08T12:38:00.176Z,5.13
2023-04-08T12:41:04.876Z,3.78
2023-04-08T12:44:08.041Z,3.90
2023-04-08T12:47:11.358Z,4.38
2023-04-08T12:50:15.171Z,4.20
2023-04-08T12:53:18.328Z,3.92
2023-04-08T12:56:22.848Z,3.75
2023-04-08T12:59:26.100Z,3.78
2023-04-08T13:02:29.371Z,3.47
2023-04-08T13:05:42.749Z,3.63
2023-04-08T13:08:47.222Z,4.30
2023-04-08T13:11:51.944Z,3.83
2023-04-08T13:14:55.191Z,4.47
2023-04-08T13:17:58.397Z,3.80
2023-04-08T13:21:01.604Z,4.00
2023-04-08T13:24:05.189Z,4.10
2023-04-08T13:27:09.668Z,4.22
2023-04-08T13:30:13.650Z,4.30
2023-04-08T13:33:17.245Z,4.68
2023-04-08T13:36:20.410Z,4.32
2023-04-08T13:39:23.702Z,3.95
2023-04-08T13:42:28.355Z,4.53
2023-04-08T13:45:31.683Z,3.88
2023-04-08T13:48:34.832Z,3.83
2023-04-08T13:51:37.997Z,3.50
2023-04-08T13:54:41.392Z,3.80
2023-04-08T13:57:46.151Z,2.88
2023-04-08T14:00:51.232Z,3.70
2023-04-08T14:03:54.410Z,3.35
2023-04-08T14:06:58.167Z,3.03
2023-04-08T14:10:01.395Z,2.88
2023-04-08T14:13:06.158Z,2.75
2023-04-08T14:16:09.568Z,3.13
2023-04-08T14:19:12.763Z,3.63
2023-04-08T14:22:16.942Z,3.17
2023-04-08T14:25:20.155Z,4.00
2023-04-08T14:28:24.737Z,3.35
2023-04-08T14:31:28.069Z,2.83
2023-04-08T14:34:31.223Z,2.80
2023-04-08T14:37:34.573Z,2.03
2023-04-08T14:40:37.988Z,2.50
2023-04-08T14:43:42.507Z,2.00
2023-04-08T14:46:45.788Z,2.03
2023-04-08T14:49:48.981Z,2.92
2023-04-08T14:52:52.152Z,2.70
2023-04-08T14:55:55.300Z,2.22
2023-04-08T14:58:59.865Z,3.30
2023-04-08T15:02:03.148Z,2.75
2023-04-08T15:05:07.169Z,2.58
2023-04-08T15:08:10.689Z,2.10
2023-04-08T15:11:13.906Z,2.40
2023-04-08T15:14:18.376Z,2.03
2023-04-08T15:17:21.889Z,2.60
2023-04-08T15:20:25.283Z,4.65
2023-04-08T15:23:28.385Z,3.97
2023-04-08T15:26:31.807Z,1.90
2023-04-08T15:29:36.721Z,3.20
2023-04-08T15:35:02.560Z,3.10
2023-04-08T15:38:05.753Z,3.30
2023-04-08T15:41:16.798Z,3.15
2023-04-08T15:44:19.866Z,3.00
2023-04-08T15:47:23.489Z,2.15
2023-04-08T15:50:31.358Z,2.80
2023-04-08T15:56:37.541Z,2.22
2023-04-08T15:59:40.612Z,1.95
2023-04-08T16:02:44.063Z,2.55
2023-04-08T16:05:48.955Z,2.28
2023-04-08T16:08:52.413Z,3.03
2023-04-08T16:11:55.906Z,3.30
2023-04-08T16:14:59.032Z,2.47
2023-04-08T16:18:03.269Z,3.70
2023-04-08T16:21:08.000Z,2.95
2023-04-08T16:24:11.520Z,3.00
2023-04-08T16:27:14.692Z,3.42
2023-04-08T16:30:18.089Z,3.20
2023-04-08T16:33:23.895Z,3.15
2023-04-08T16:36:28.490Z,3.42
2023-04-08T16:39:31.782Z,3.88
2023-04-08T16:42:34.948Z,3.90
2023-04-08T16:45:38.995Z,3.97
2023-04-08T16:48:43.769Z,3.03
2023-04-08T16:51:48.945Z,3.15
2023-04-08T16:54:52.444Z,4.50
2023-04-08T16:57:55.604Z,5.07
2023-04-08T17:00:58.776Z,5.18
2023-04-08T17:04:02.008Z,6.47
2023-04-08T17:07:06.586Z,5.65
2023-04-08T17:10:11.342Z,6.60
2023-04-08T17:13:14.984Z,4.32
2023-04-08T17:16:19.367Z,4.88
2023-04-08T17:19:22.505Z,4.50
2023-04-08T17:22:27.420Z,5.20
2023-04-08T17:25:35.321Z,4.40
2023-04-08T17:28:38.510Z,5.20
2023-04-08T17:31:41.734Z,5.13
2023-04-08T17:34:44.921Z,5.72
2023-04-08T17:37:50.233Z,5.63
2023-04-08T17:40:53.427Z,4.50
2023-04-08T17:43:57.217Z,5.50
2023-04-08T17:47:00.596Z,5.97
2023-04-08T17:50:03.733Z,5.15
2023-04-08T17:53:08.269Z,5.45
2023-04-08T17:56:11.881Z,7.13
2023-04-08T17:59:15.046Z,6.70
2023-04-08T18:02:18.402Z,6.45
2023-04-08T18:05:21.856Z,8.02
2023-04-08T18:08:26.473Z,5.97
2023-04-08T18:11:29.608Z,6.30
2023-04-08T18:14:32.679Z,5.60
2023-04-08T18:17:35.871Z,4.82
2023-04-08T18:20:39.085Z,4.40
2023-04-08T18:23:43.589Z,3.55
2023-04-08T18:26:49.109Z,3.55
2023-04-08T18:29:57.491Z,3.13
2023-04-08T18:33:01.898Z,2.47
2023-04-08T18:36:07.971Z,2.90
2023-04-08T18:39:12.578Z,2.65
2023-04-08T18:42:16.172Z,2.67
2023-04-08T18:45:19.514Z,3.00
2023-04-08T18:48:22.691Z,2.88
2023-04-08T18:51:26.572Z,2.92
2023-04-08T18:54:31.493Z,2.80
2023-04-08T18:57:34.691Z,3.03
2023-04-08T19:00:39.568Z,2.72
2023-04-08T19:03:43.854Z,3.70
2023-04-08T19:06:47.326Z,3.95
2023-04-08T19:09:51.936Z,4.20
2023-04-08T19:12:55.119Z,4.10
2023-04-08T19:15:58.572Z,3.33
2023-04-08T19:19:02.278Z,5.10
2023-04-08T19:22:06.055Z,3.70
2023-04-08T19:25:10.940Z,5.22
2023-04-08T19:28:14.514Z,9.70
2023-04-08T19:31:17.869Z,3.70
2023-04-08T19:34:20.983Z,4.50
2023-04-08T19:37:24.356Z,3.88
2023-04-08T19:40:34.459Z,4.70
2023-04-08T19:43:37.594Z,4.70
2023-04-08T19:46:41.057Z,3.33
2023-04-08T19:49:44.400Z,3.92
2023-04-08T19:52:47.830Z,4.32
2023-04-08T19:55:59.669Z,5.38
2023-04-08T19:59:02.792Z,15.13
2023-04-08T20:02:06.515Z,8.57
2023-04-08T20:05:16.321Z,3.67
2023-04-08T20:08:19.511Z,4.50
2023-04-08T20:11:24.099Z,5.93
2023-04-08T20:14:27.226Z,4.75
2023-04-08T20:17:33.388Z,4.20
2023-04-08T20:20:36.635Z,4.13
2023-04-08T20:23:44.053Z,3.90
2023-04-08T20:26:48.537Z,3.40
2023-04-08T20:29:52.411Z,4.80
2023-04-08T20:32:56.018Z,4.97
2023-04-08T20:35:59.248Z,4.18
2023-04-08T20:39:02.478Z,6.25
2023-04-08T20:42:09.348Z,4.85
2023-04-08T20:45:12.636Z,5.78
2023-04-08T20:48:16.499Z,4.53
2023-04-08T20:51:19.827Z,4.10
2023-04-08T20:54:23.412Z,4.13
2023-04-08T20:57:27.980Z,4.00
2023-04-08T21:00:31.125Z,3.97
2023-04-08T21:03:34.465Z,3.70
2023-04-08T21:06:37.807Z,4.55
2023-04-08T21:09:40.982Z,3.65
2023-04-08T21:12:45.972Z,3.97
2023-04-08T21:15:49.190Z,5.05
2023-04-08T21:18:52.653Z,4.43
2023-04-08T21:21:56.102Z,4.60
2023-04-08T21:24:59.274Z,4.57
2023-04-08T21:28:03.807Z,4.18
2023-04-08T21:35:04.012Z,4.22
2023-04-08T21:38:07.624Z,4.47
2023-04-08T21:41:12.366Z,3.83
2023-04-08T21:44:17.214Z,4.10
2023-04-08T21:47:20.873Z,4.55
2023-04-08T21:50:27.101Z,6.28
2023-04-08T21:53:30.803Z,6.40
2023-04-08T21:56:34.890Z,4.40
2023-04-08T21:59:38.655Z,4.53
2023-04-08T22:02:42.672Z,4.57
2023-04-08T22:05:48.269Z,4.63
2023-04-08T22:08:52.120Z,4.57
2023-04-08T22:11:57.038Z,4.90
2023-04-08T22:15:01.416Z,4.45
2023-04-08T22:18:06.030Z,4.75
2023-04-08T22:21:11.374Z,4.38
2023-04-08T22:24:15.078Z,4.35
2023-04-08T22:27:19.026Z,4.35
2023-04-08T22:30:22.819Z,4.65
2023-04-08T22:33:26.790Z,3.60
2023-04-08T22:36:32.148Z,4.28
2023-04-08T22:39:35.929Z,4.35
2023-04-08T22:42:39.747Z,4.65
2023-04-08T22:45:43.594Z,4.57
2023-04-08T22:48:47.821Z,5.55
2023-04-08T22:51:53.612Z,5.65
2023-04-08T22:54:57.763Z,3.90
2023-04-08T22:58:02.673Z,5.03
2023-04-08T23:01:12.552Z,5.13
2023-04-08T23:04:16.265Z,5.13
2023-04-08T23:07:21.535Z,5.05
2023-04-08T23:10:25.106Z,5.00
2023-04-08T23:13:29.484Z,4.97
2023-04-08T23:16:32.931Z,5.28
2023-04-08T23:19:36.646Z,4.95
2023-04-08T23:22:41.821Z,5.93
2023-04-08T23:25:45.710Z,5.00
2023-04-08T23:28:50.077Z,4.38
2023-04-08T23:31:54.288Z,5.43
2023-04-08T23:34:57.980Z,5.60
2023-04-08T23:38:03.481Z,4.78
2023-04-08T23:41:07.472Z,4.53
2023-04-08T23:44:11.942Z,4.60
2023-04-08T23:47:16.161Z,4.80
2023-04-08T23:50:20.250Z,5.60
2023-04-08T23:53:25.040Z,5.40
2023-04-08T23:56:29.335Z,5.32
2023-04-08T23:59:34.227Z,5.07
